KBPT/BPT METAR and TAF weather

Enter ICAO airport designator
Station Type Date Time Source
KBPT METAR 2018/04/23 10:53 UTC NOAA

KBPT 231053Z AUTO 00000KT 10SM CLR 09/09 A3001 RMK AO2 SLP160 T00940094


Station Type Date Time Source
KBPT Decoded METAR 2018/04/23 10:53 UTC NOAA

SOUTHEAST TEXAS RGNL AIRPORT, TX, United States (KBPT) 29-95N 094-08W 5M
Apr 23, 2018 - 06:53 AM EDT / 2018.04.23 1053 UTC
Wind: Calm:0
Visibility: 10 mile(s):0
Sky conditions: clear
Temperature: 48.9 F (9.4 C)
Dew Point: 48.9 F (9.4 C)
Relative Humidity: 100%
Pressure (altimeter): 30.01 in. Hg (1016 hPa)
ob: KBPT 231053Z AUTO 00000KT 10SM CLR 09/09 A3001 RMK AO2 SLP160 T00940094
cycle: 11

Station Type Date Time Source
KBPT TAF 2018/04/23 12:27 UTC NOAA

TAF KBPT 231125Z 2312/2412 27004KT P6SM SKC
FM231400 29008KT P6SM FEW250
FM231700 31012G18KT P6SM FEW250
FM240000 31004KT P6SM SKC


Example: see airport list